sensor_id;sensor_type;location;lat;lon;timestamp;pressure;altitude;pressure_sealevel;temperature;humidity
76124;BME280;65173;48.066;20.976;2023-06-05T00:01:58;100819.13;;;16.28;71.19
76124;BME280;65173;48.066;20.976;2023-06-05T00:05:02;100817.88;;;16.25;71.43
76124;BME280;65173;48.066;20.976;2023-06-05T00:08:05;100810.59;;;16.26;71.18
76124;BME280;65173;48.066;20.976;2023-06-05T00:11:08;100810.25;;;16.27;71.42
76124;BME280;65173;48.066;20.976;2023-06-05T00:14:11;100806.09;;;16.30;71.79
76124;BME280;65173;48.066;20.976;2023-06-05T00:17:14;100805.63;;;16.40;70.82
76124;BME280;65173;48.066;20.976;2023-06-05T00:20:17;100810.78;;;16.33;71.40
76124;BME280;65173;48.066;20.976;2023-06-05T00:23:20;100814.84;;;16.15;72.84
76124;BME280;65173;48.066;20.976;2023-06-05T00:26:23;100814.75;;;16.23;71.67
76124;BME280;65173;48.066;20.976;2023-06-05T00:29:26;100806.44;;;16.16;72.08
76124;BME280;65173;48.066;20.976;2023-06-05T00:32:29;100805.75;;;16.19;72.34
76124;BME280;65173;48.066;20.976;2023-06-05T00:35:32;100808.00;;;16.17;72.33
76124;BME280;65173;48.066;20.976;2023-06-05T00:38:35;100805.75;;;15.95;72.99
76124;BME280;65173;48.066;20.976;2023-06-05T00:41:37;100804.53;;;15.80;73.42
76124;BME280;65173;48.066;20.976;2023-06-05T00:44:44;100808.78;;;15.81;72.50
76124;BME280;65173;48.066;20.976;2023-06-05T00:47:48;100804.31;;;15.85;72.24
76124;BME280;65173;48.066;20.976;2023-06-05T00:50:52;100808.91;;;15.73;71.43
76124;BME280;65173;48.066;20.976;2023-06-05T00:53:55;100808.13;;;15.72;71.50
76124;BME280;65173;48.066;20.976;2023-06-05T00:56:58;100810.69;;;15.81;71.03
76124;BME280;65173;48.066;20.976;2023-06-05T01:00:03;100812.50;;;15.89;71.64
76124;BME280;65173;48.066;20.976;2023-06-05T01:03:09;100814.19;;;16.06;70.39
76124;BME280;65173;48.066;20.976;2023-06-05T01:06:15;100814.63;;;16.08;70.24
76124;BME280;65173;48.066;20.976;2023-06-05T01:09:19;100817.53;;;15.90;71.57
76124;BME280;65173;48.066;20.976;2023-06-05T01:12:29;100818.09;;;15.96;70.59
76124;BME280;65173;48.066;20.976;2023-06-05T01:15:36;100815.19;;;15.89;71.19
76124;BME280;65173;48.066;20.976;2023-06-05T01:18:41;100822.56;;;15.80;71.86
76124;BME280;65173;48.066;20.976;2023-06-05T01:21:48;100815.47;;;15.63;71.53
76124;BME280;65173;48.066;20.976;2023-06-05T01:24:52;100817.75;;;15.73;71.27
76124;BME280;65173;48.066;20.976;2023-06-05T01:28:10;100820.53;;;15.77;71.22
76124;BME280;65173;48.066;20.976;2023-06-05T01:31:14;100823.66;;;15.79;71.24
76124;BME280;65173;48.066;20.976;2023-06-05T01:34:23;100832.31;;;15.84;72.09
76124;BME280;65173;48.066;20.976;2023-06-05T01:37:28;100836.44;;;15.82;73.11
76124;BME280;65173;48.066;20.976;2023-06-05T01:40:39;100839.44;;;15.68;74.44
76124;BME280;65173;48.066;20.976;2023-06-05T01:43:43;100838.41;;;15.60;74.45
76124;BME280;65173;48.066;20.976;2023-06-05T01:46:49;100837.44;;;15.65;75.24
76124;BME280;65173;48.066;20.976;2023-06-05T01:49:52;100836.44;;;15.70;75.62
76124;BME280;65173;48.066;20.976;2023-06-05T01:52:54;100832.19;;;15.69;75.77
76124;BME280;65173;48.066;20.976;2023-06-05T01:55:57;100831.84;;;15.70;75.82
76124;BME280;65173;48.066;20.976;2023-06-05T01:59:00;100828.00;;;15.59;76.00
76124;BME280;65173;48.066;20.976;2023-06-05T02:02:09;100820.31;;;15.70;75.47
76124;BME280;65173;48.066;20.976;2023-06-05T02:05:12;100822.34;;;15.85;73.82
76124;BME280;65173;48.066;20.976;2023-06-05T02:08:17;100825.59;;;15.90;73.07
76124;BME280;65173;48.066;20.976;2023-06-05T02:11:22;100823.91;;;15.86;72.15
76124;BME280;65173;48.066;20.976;2023-06-05T02:14:25;100827.72;;;15.85;72.41
76124;BME280;65173;48.066;20.976;2023-06-05T02:17:29;100824.81;;;15.90;71.02
76124;BME280;65173;48.066;20.976;2023-06-05T02:20:32;100827.38;;;15.74;71.05
76124;BME280;65173;48.066;20.976;2023-06-05T02:23:35;100829.03;;;15.79;70.80
76124;BME280;65173;48.066;20.976;2023-06-05T02:26:38;100820.44;;;15.85;69.93
76124;BME280;65173;48.066;20.976;2023-06-05T02:29:41;100829.84;;;15.79;69.84
76124;BME280;65173;48.066;20.976;2023-06-05T02:32:44;100826.69;;;15.77;69.36
76124;BME280;65173;48.066;20.976;2023-06-05T02:35:47;100828.44;;;15.61;69.06
76124;BME280;65173;48.066;20.976;2023-06-05T02:38:50;100828.06;;;15.50;69.66
76124;BME280;65173;48.066;20.976;2023-06-05T02:41:56;100826.09;;;15.59;70.58
76124;BME280;65173;48.066;20.976;2023-06-05T02:44:59;100828.69;;;15.68;69.62
76124;BME280;65173;48.066;20.976;2023-06-05T02:48:02;100832.50;;;15.67;69.62
76124;BME280;65173;48.066;20.976;2023-06-05T02:51:23;100833.22;;;15.76;69.69
76124;BME280;65173;48.066;20.976;2023-06-05T02:54:34;100827.13;;;15.79;69.22
76124;BME280;65173;48.066;20.976;2023-06-05T02:57:40;100831.50;;;15.72;69.75
76124;BME280;65173;48.066;20.976;2023-06-05T03:00:52;100828.16;;;15.75;69.03
76124;BME280;65173;48.066;20.976;2023-06-05T03:03:56;100828.25;;;15.78;68.69
76124;BME280;65173;48.066;20.976;2023-06-05T03:07:03;100827.38;;;15.86;68.38
76124;BME280;65173;48.066;20.976;2023-06-05T03:10:08;100827.19;;;15.91;67.90
76124;BME280;65173;48.066;20.976;2023-06-05T03:13:11;100827.38;;;15.98;67.22
76124;BME280;65173;48.066;20.976;2023-06-05T03:16:13;100825.84;;;16.10;66.58
76124;BME280;65173;48.066;20.976;2023-06-05T03:19:22;100827.75;;;16.09;66.64
76124;BME280;65173;48.066;20.976;2023-06-05T03:22:26;100820.44;;;15.97;67.49
76124;BME280;65173;48.066;20.976;2023-06-05T03:25:30;100814.28;;;15.97;67.38
76124;BME280;65173;48.066;20.976;2023-06-05T03:28:33;100822.44;;;16.13;68.36
76124;BME280;65173;48.066;20.976;2023-06-05T03:31:41;100823.91;;;15.98;66.83
76124;BME280;65173;48.066;20.976;2023-06-05T03:34:46;100825.03;;;15.97;67.44
76124;BME280;65173;48.066;20.976;2023-06-05T03:37:52;100815.16;;;16.13;66.20
76124;BME280;65173;48.066;20.976;2023-06-05T03:40:55;100818.22;;;16.24;66.67
76124;BME280;65173;48.066;20.976;2023-06-05T03:43:58;100823.59;;;16.24;66.26
76124;BME280;65173;48.066;20.976;2023-06-05T03:47:01;100813.03;;;16.31;66.32
76124;BME280;65173;48.066;20.976;2023-06-05T03:50:05;100816.41;;;16.40;66.58
76124;BME280;65173;48.066;20.976;2023-06-05T03:53:12;100817.16;;;16.53;64.75
76124;BME280;65173;48.066;20.976;2023-06-05T03:56:17;100824.09;;;16.66;64.53
76124;BME280;65173;48.066;20.976;2023-06-05T03:59:22;100813.44;;;16.70;63.66
76124;BME280;65173;48.066;20.976;2023-06-05T04:02:31;100820.41;;;16.71;63.03
76124;BME280;65173;48.066;20.976;2023-06-05T04:05:34;100811.19;;;16.84;63.18
76124;BME280;65173;48.066;20.976;2023-06-05T04:08:36;100812.03;;;17.00;61.80
76124;BME280;65173;48.066;20.976;2023-06-05T04:11:41;100816.63;;;16.99;61.74
76124;BME280;65173;48.066;20.976;2023-06-05T04:14:45;100807.25;;;17.09;62.01
76124;BME280;65173;48.066;20.976;2023-06-05T04:17:48;100811.00;;;17.20;62.89
76124;BME280;65173;48.066;20.976;2023-06-05T04:20:52;100812.25;;;17.39;62.26
76124;BME280;65173;48.066;20.976;2023-06-05T04:23:55;100816.25;;;17.29;60.75
76124;BME280;65173;48.066;20.976;2023-06-05T04:26:58;100818.97;;;17.45;60.15
76124;BME280;65173;48.066;20.976;2023-06-05T04:30:07;100815.06;;;17.58;59.53
76124;BME280;65173;48.066;20.976;2023-06-05T04:33:11;100810.56;;;17.62;59.56
76124;BME280;65173;48.066;20.976;2023-06-05T04:36:14;100814.38;;;17.61;59.47
76124;BME280;65173;48.066;20.976;2023-06-05T04:39:17;100802.41;;;17.74;57.35
76124;BME280;65173;48.066;20.976;2023-06-05T04:42:21;100810.69;;;17.81;57.50
76124;BME280;65173;48.066;20.976;2023-06-05T04:45:24;100812.25;;;17.98;57.00
76124;BME280;65173;48.066;20.976;2023-06-05T04:48:27;100811.03;;;17.95;55.54
76124;BME280;65173;48.066;20.976;2023-06-05T04:51:30;100815.38;;;18.00;55.75
76124;BME280;65173;48.066;20.976;2023-06-05T04:54:33;100826.41;;;18.11;54.69
76124;BME280;65173;48.066;20.976;2023-06-05T04:57:37;100822.66;;;18.15;54.28
76124;BME280;65173;48.066;20.976;2023-06-05T05:05:36;100825.41;;;18.34;54.17
76124;BME280;65173;48.066;20.976;2023-06-05T05:08:40;100836.59;;;18.68;56.21
76124;BME280;65173;48.066;20.976;2023-06-05T05:11:43;100832.00;;;19.07;55.08
76124;BME280;65173;48.066;20.976;2023-06-05T05:14:46;100834.69;;;19.26;53.94
76124;BME280;65173;48.066;20.976;2023-06-05T05:17:49;100837.22;;;19.58;55.57
76124;BME280;65173;48.066;20.976;2023-06-05T05:20:52;100834.50;;;19.81;54.19
76124;BME280;65173;48.066;20.976;2023-06-05T05:23:57;100829.50;;;20.05;52.64
76124;BME280;65173;48.066;20.976;2023-06-05T05:27:01;100833.38;;;20.04;51.76
76124;BME280;65173;48.066;20.976;2023-06-05T05:30:04;100840.38;;;20.58;51.92
76124;BME280;65173;48.066;20.976;2023-06-05T05:33:07;100839.09;;;20.82;51.53
76124;BME280;65173;48.066;20.976;2023-06-05T05:36:10;100830.56;;;20.80;52.06
76124;BME280;65173;48.066;20.976;2023-06-05T05:39:13;100822.84;;;20.82;51.76
76124;BME280;65173;48.066;20.976;2023-06-05T05:42:16;100827.06;;;21.09;51.75
76124;BME280;65173;48.066;20.976;2023-06-05T05:45:19;100823.94;;;21.07;51.67
76124;BME280;65173;48.066;20.976;2023-06-05T05:48:22;100818.63;;;21.18;52.65
76124;BME280;65173;48.066;20.976;2023-06-05T05:51:25;100814.13;;;21.29;51.08
76124;BME280;65173;48.066;20.976;2023-06-05T05:54:28;100821.91;;;21.31;51.14
76124;BME280;65173;48.066;20.976;2023-06-05T05:57:30;100816.31;;;21.57;50.42
76124;BME280;65173;48.066;20.976;2023-06-05T06:00:33;100818.88;;;21.87;48.75
76124;BME280;65173;48.066;20.976;2023-06-05T06:03:37;100809.44;;;22.14;48.13
76124;BME280;65173;48.066;20.976;2023-06-05T06:06:40;100811.84;;;22.30;47.85
76124;BME280;65173;48.066;20.976;2023-06-05T06:09:42;100821.63;;;22.42;46.90
76124;BME280;65173;48.066;20.976;2023-06-05T06:12:46;100824.31;;;22.35;48.74
76124;BME280;65173;48.066;20.976;2023-06-05T06:15:49;100810.31;;;22.33;49.40
76124;BME280;65173;48.066;20.976;2023-06-05T06:18:52;100818.53;;;22.43;49.62
76124;BME280;65173;48.066;20.976;2023-06-05T06:21:55;100816.84;;;22.90;48.21
76124;BME280;65173;48.066;20.976;2023-06-05T06:24:57;100817.66;;;23.12;45.23
76124;BME280;65173;48.066;20.976;2023-06-05T06:28:00;100826.19;;;23.00;48.21
76124;BME280;65173;48.066;20.976;2023-06-05T06:31:03;100825.41;;;22.92;49.58
76124;BME280;65173;48.066;20.976;2023-06-05T06:34:06;100814.28;;;23.65;45.94
76124;BME280;65173;48.066;20.976;2023-06-05T06:37:09;100819.88;;;22.78;45.93
76124;BME280;65173;48.066;20.976;2023-06-05T06:40:11;100820.13;;;23.60;45.08
76124;BME280;65173;48.066;20.976;2023-06-05T06:43:14;100820.91;;;23.74;43.80
76124;BME280;65173;48.066;20.976;2023-06-05T06:46:24;100822.41;;;24.36;43.32
76124;BME280;65173;48.066;20.976;2023-06-05T06:49:26;100818.16;;;24.13;40.63
76124;BME280;65173;48.066;20.976;2023-06-05T06:52:30;100821.66;;;23.85;47.40
76124;BME280;65173;48.066;20.976;2023-06-05T06:55:33;100825.56;;;23.92;49.15
76124;BME280;65173;48.066;20.976;2023-06-05T06:58:36;100817.78;;;23.65;48.00
76124;BME280;65173;48.066;20.976;2023-06-05T07:01:43;100818.56;;;23.87;48.93
76124;BME280;65173;48.066;20.976;2023-06-05T07:04:48;100816.22;;;23.68;47.61
76124;BME280;65173;48.066;20.976;2023-06-05T07:07:51;100816.09;;;24.60;46.47
76124;BME280;65173;48.066;20.976;2023-06-05T07:10:54;100811.09;;;23.24;47.91
76124;BME280;65173;48.066;20.976;2023-06-05T07:13:58;100813.44;;;23.36;49.68
76124;BME280;65173;48.066;20.976;2023-06-05T07:17:01;100815.06;;;25.20;45.04
76124;BME280;65173;48.066;20.976;2023-06-05T07:20:05;100806.00;;;25.34;42.79
76124;BME280;65173;48.066;20.976;2023-06-05T07:23:10;100804.03;;;25.89;42.30
76124;BME280;65173;48.066;20.976;2023-06-05T07:26:15;100805.63;;;26.92;38.14
76124;BME280;65173;48.066;20.976;2023-06-05T07:29:18;100803.16;;;27.32;37.42
76124;BME280;65173;48.066;20.976;2023-06-05T07:32:21;100807.28;;;27.17;40.69
76124;BME280;65173;48.066;20.976;2023-06-05T07:35:24;100817.41;;;27.20;37.00
76124;BME280;65173;48.066;20.976;2023-06-05T07:38:29;100813.81;;;26.32;37.30
76124;BME280;65173;48.066;20.976;2023-06-05T07:41:43;100822.72;;;27.04;37.90
76124;BME280;65173;48.066;20.976;2023-06-05T07:44:53;100821.56;;;27.55;36.39
76124;BME280;65173;48.066;20.976;2023-06-05T07:47:56;100818.59;;;27.19;37.53
76124;BME280;65173;48.066;20.976;2023-06-05T07:50:59;100823.22;;;27.76;36.52
76124;BME280;65173;48.066;20.976;2023-06-05T07:54:03;100817.03;;;28.38;37.05
76124;BME280;65173;48.066;20.976;2023-06-05T07:57:38;100818.81;;;27.05;39.51
76124;BME280;65173;48.066;20.976;2023-06-05T08:00:41;100822.28;;;27.05;38.89
76124;BME280;65173;48.066;20.976;2023-06-05T08:03:50;100820.13;;;27.74;38.70
76124;BME280;65173;48.066;20.976;2023-06-05T08:06:53;100811.34;;;27.32;38.60
76124;BME280;65173;48.066;20.976;2023-06-05T08:09:56;100819.19;;;28.66;36.33
76124;BME280;65173;48.066;20.976;2023-06-05T08:12:59;100818.25;;;29.29;34.92
76124;BME280;65173;48.066;20.976;2023-06-05T08:16:02;100829.03;;;29.56;34.28
76124;BME280;65173;48.066;20.976;2023-06-05T08:19:05;100820.03;;;29.55;34.80
76124;BME280;65173;48.066;20.976;2023-06-05T08:22:08;100824.06;;;29.96;36.43
76124;BME280;65173;48.066;20.976;2023-06-05T08:25:11;100815.13;;;30.24;34.97
76124;BME280;65173;48.066;20.976;2023-06-05T08:28:14;100814.25;;;28.97;32.94
76124;BME280;65173;48.066;20.976;2023-06-05T08:31:20;100819.09;;;30.65;31.67
76124;BME280;65173;48.066;20.976;2023-06-05T08:34:23;100817.25;;;29.39;33.94
76124;BME280;65173;48.066;20.976;2023-06-05T08:37:28;100809.84;;;30.59;32.84
76124;BME280;65173;48.066;20.976;2023-06-05T08:40:31;100811.34;;;31.52;34.90
76124;BME280;65173;48.066;20.976;2023-06-05T08:43:36;100803.56;;;31.85;31.70
76124;BME280;65173;48.066;20.976;2023-06-05T08:46:39;100807.50;;;32.19;31.02
76124;BME280;65173;48.066;20.976;2023-06-05T08:49:43;100806.03;;;31.70;32.36
76124;BME280;65173;48.066;20.976;2023-06-05T08:52:47;100801.59;;;32.51;30.59
76124;BME280;65173;48.066;20.976;2023-06-05T08:55:54;100803.19;;;32.18;29.76
76124;BME280;65173;48.066;20.976;2023-06-05T08:58:59;100807.25;;;32.48;28.67
76124;BME280;65173;48.066;20.976;2023-06-05T09:02:02;100798.03;;;32.94;28.99
76124;BME280;65173;48.066;20.976;2023-06-05T09:05:05;100803.69;;;31.56;31.66
76124;BME280;65173;48.066;20.976;2023-06-05T09:08:08;100796.03;;;31.26;30.93
76124;BME280;65173;48.066;20.976;2023-06-05T09:11:23;100784.94;;;32.64;28.77
76124;BME280;65173;48.066;20.976;2023-06-05T09:14:27;100789.91;;;32.47;28.90
76124;BME280;65173;48.066;20.976;2023-06-05T09:17:30;100787.38;;;32.84;29.93
76124;BME280;65173;48.066;20.976;2023-06-05T09:20:34;100781.28;;;33.38;25.78
76124;BME280;65173;48.066;20.976;2023-06-05T09:23:37;100783.38;;;33.83;25.40
76124;BME280;65173;48.066;20.976;2023-06-05T09:27:03;100788.28;;;33.79;25.78
76124;BME280;65173;48.066;20.976;2023-06-05T09:30:11;100783.22;;;33.96;25.81
76124;BME280;65173;48.066;20.976;2023-06-05T09:33:14;100778.28;;;31.39;29.88
76124;BME280;65173;48.066;20.976;2023-06-05T09:36:17;100777.63;;;32.70;27.10
76124;BME280;65173;48.066;20.976;2023-06-05T09:39:20;100784.41;;;33.76;24.89
76124;BME280;65173;48.066;20.976;2023-06-05T09:42:33;100780.59;;;34.20;27.40
76124;BME280;65173;48.066;20.976;2023-06-05T09:45:43;100775.19;;;32.72;25.04
76124;BME280;65173;48.066;20.976;2023-06-05T09:48:58;100775.31;;;31.81;26.86
76124;BME280;65173;48.066;20.976;2023-06-05T09:52:36;100772.97;;;32.89;29.58
76124;BME280;65173;48.066;20.976;2023-06-05T09:55:41;100773.63;;;33.51;27.75
76124;BME280;65173;48.066;20.976;2023-06-05T09:58:51;100772.06;;;32.17;28.42
76124;BME280;65173;48.066;20.976;2023-06-05T10:01:54;100775.16;;;32.94;25.60
76124;BME280;65173;48.066;20.976;2023-06-05T10:05:04;100769.41;;;32.79;28.11
76124;BME280;65173;48.066;20.976;2023-06-05T10:08:12;100776.66;;;33.26;26.43
76124;BME280;65173;48.066;20.976;2023-06-05T10:11:19;100775.13;;;33.34;24.46
76124;BME280;65173;48.066;20.976;2023-06-05T10:14:23;100770.28;;;33.07;26.27
76124;BME280;65173;48.066;20.976;2023-06-05T10:17:27;100766.56;;;33.41;27.00
76124;BME280;65173;48.066;20.976;2023-06-05T10:20:32;100765.69;;;33.81;25.82
76124;BME280;65173;48.066;20.976;2023-06-05T10:23:37;100754.19;;;32.00;25.34
76124;BME280;65173;48.066;20.976;2023-06-05T10:27:03;100763.41;;;31.84;25.92
76124;BME280;65173;48.066;20.976;2023-06-05T10:40:01;100751.81;;;33.53;24.91
76124;BME280;65173;48.066;20.976;2023-06-05T10:46:44;100743.38;;;33.57;27.37
76124;BME280;65173;48.066;20.976;2023-06-05T10:53:42;100744.53;;;34.47;24.83
76124;BME280;65173;48.066;20.976;2023-06-05T11:00:07;100730.84;;;34.53;24.35
76124;BME280;65173;48.066;20.976;2023-06-05T11:03:13;100731.25;;;35.26;23.41
76124;BME280;65173;48.066;20.976;2023-06-05T11:06:16;100730.00;;;34.10;25.05
76124;BME280;65173;48.066;20.976;2023-06-05T11:09:18;100729.22;;;34.28;27.53
76124;BME280;65173;48.066;20.976;2023-06-05T11:12:21;100722.88;;;34.27;25.95
76124;BME280;65173;48.066;20.976;2023-06-05T11:15:40;100721.16;;;33.02;25.97
76124;BME280;65173;48.066;20.976;2023-06-05T11:18:43;100715.44;;;34.00;28.29
76124;BME280;65173;48.066;20.976;2023-06-05T11:22:06;100716.88;;;34.47;26.25
76124;BME280;65173;48.066;20.976;2023-06-05T11:28:37;100701.28;;;33.25;22.73
76124;BME280;65173;48.066;20.976;2023-06-05T11:31:42;100708.53;;;33.50;24.86
76124;BME280;65173;48.066;20.976;2023-06-05T11:34:49;100705.44;;;33.57;24.38
76124;BME280;65173;48.066;20.976;2023-06-05T11:38:08;100699.34;;;34.83;21.95
76124;BME280;65173;48.066;20.976;2023-06-05T11:41:11;100698.56;;;35.54;21.64
76124;BME280;65173;48.066;20.976;2023-06-05T11:44:14;100693.28;;;35.80;22.27
76124;BME280;65173;48.066;20.976;2023-06-05T11:47:24;100703.25;;;34.67;24.61
76124;BME280;65173;48.066;20.976;2023-06-05T11:50:28;100695.75;;;33.71;22.84
76124;BME280;65173;48.066;20.976;2023-06-05T11:53:33;100699.25;;;34.08;25.62
76124;BME280;65173;48.066;20.976;2023-06-05T11:56:36;100684.44;;;32.83;24.00
76124;BME280;65173;48.066;20.976;2023-06-05T11:59:48;100689.53;;;31.45;26.66
76124;BME280;65173;48.066;20.976;2023-06-05T12:02:51;100683.91;;;31.48;25.55
76124;BME280;65173;48.066;20.976;2023-06-05T12:05:54;100684.84;;;32.10;22.99
76124;BME280;65173;48.066;20.976;2023-06-05T12:09:07;100684.19;;;33.08;22.51
76124;BME280;65173;48.066;20.976;2023-06-05T12:12:11;100680.84;;;33.23;25.56
76124;BME280;65173;48.066;20.976;2023-06-05T12:15:18;100682.88;;;33.77;24.16
76124;BME280;65173;48.066;20.976;2023-06-05T12:18:21;100674.88;;;34.48;23.11
76124;BME280;65173;48.066;20.976;2023-06-05T12:21:32;100670.00;;;34.25;24.36
76124;BME280;65173;48.066;20.976;2023-06-05T12:24:35;100664.34;;;34.29;25.25
76124;BME280;65173;48.066;20.976;2023-06-05T12:27:38;100658.94;;;34.67;22.98
76124;BME280;65173;48.066;20.976;2023-06-05T12:30:40;100654.38;;;34.04;23.80
76124;BME280;65173;48.066;20.976;2023-06-05T12:33:47;100656.56;;;34.00;23.92
76124;BME280;65173;48.066;20.976;2023-06-05T12:36:54;100653.50;;;33.89;24.81
76124;BME280;65173;48.066;20.976;2023-06-05T12:39:58;100651.50;;;33.89;23.76
76124;BME280;65173;48.066;20.976;2023-06-05T12:43:01;100645.03;;;34.53;23.72
76124;BME280;65173;48.066;20.976;2023-06-05T12:46:05;100642.13;;;34.80;22.30
76124;BME280;65173;48.066;20.976;2023-06-05T12:49:07;100637.97;;;34.75;24.05
76124;BME280;65173;48.066;20.976;2023-06-05T12:52:10;100628.59;;;33.98;23.67
76124;BME280;65173;48.066;20.976;2023-06-05T12:55:13;100631.22;;;33.74;23.97
76124;BME280;65173;48.066;20.976;2023-06-05T12:58:15;100623.75;;;33.65;24.81
76124;BME280;65173;48.066;20.976;2023-06-05T13:01:18;100614.56;;;34.10;26.10
76124;BME280;65173;48.066;20.976;2023-06-05T13:04:21;100619.91;;;33.81;24.08
76124;BME280;65173;48.066;20.976;2023-06-05T13:07:23;100610.78;;;32.80;24.97
76124;BME280;65173;48.066;20.976;2023-06-05T13:10:27;100599.84;;;31.87;24.99
76124;BME280;65173;48.066;20.976;2023-06-05T13:13:29;100600.53;;;32.31;27.88
76124;BME280;65173;48.066;20.976;2023-06-05T13:16:33;100596.53;;;31.70;27.00
76124;BME280;65173;48.066;20.976;2023-06-05T13:19:35;100587.84;;;31.81;26.98
76124;BME280;65173;48.066;20.976;2023-06-05T13:22:39;100592.34;;;31.88;27.38
76124;BME280;65173;48.066;20.976;2023-06-05T13:25:42;100587.34;;;30.83;27.59
76124;BME280;65173;48.066;20.976;2023-06-05T13:28:45;100583.66;;;31.67;26.18
76124;BME280;65173;48.066;20.976;2023-06-05T13:31:48;100580.84;;;31.89;25.57
76124;BME280;65173;48.066;20.976;2023-06-05T13:34:51;100579.50;;;32.25;26.78
76124;BME280;65173;48.066;20.976;2023-06-05T13:37:56;100584.94;;;32.47;26.45
76124;BME280;65173;48.066;20.976;2023-06-05T13:40:59;100586.47;;;32.48;25.09
76124;BME280;65173;48.066;20.976;2023-06-05T13:44:02;100573.44;;;31.77;27.08
76124;BME280;65173;48.066;20.976;2023-06-05T13:47:04;100579.09;;;32.04;26.00
76124;BME280;65173;48.066;20.976;2023-06-05T13:50:07;100568.44;;;31.63;29.32
76124;BME280;65173;48.066;20.976;2023-06-05T13:53:10;100571.66;;;31.92;26.13
76124;BME280;65173;48.066;20.976;2023-06-05T13:56:13;100570.66;;;31.12;28.07
76124;BME280;65173;48.066;20.976;2023-06-05T13:59:15;100575.13;;;30.84;27.15
76124;BME280;65173;48.066;20.976;2023-06-05T14:02:18;100566.38;;;30.63;28.61
76124;BME280;65173;48.066;20.976;2023-06-05T14:05:21;100573.28;;;31.37;29.77
76124;BME280;65173;48.066;20.976;2023-06-05T14:08:24;100564.38;;;30.51;25.36
76124;BME280;65173;48.066;20.976;2023-06-05T14:11:26;100558.34;;;30.56;26.62
76124;BME280;65173;48.066;20.976;2023-06-05T14:14:29;100563.69;;;31.20;27.37
76124;BME280;65173;48.066;20.976;2023-06-05T14:17:32;100569.16;;;30.85;29.24
76124;BME280;65173;48.066;20.976;2023-06-05T14:20:35;100561.84;;;31.17;26.15
76124;BME280;65173;48.066;20.976;2023-06-05T14:23:38;100556.84;;;29.76;26.47
76124;BME280;65173;48.066;20.976;2023-06-05T14:26:45;100554.81;;;30.30;27.74
76124;BME280;65173;48.066;20.976;2023-06-05T14:29:48;100556.38;;;30.57;27.12
76124;BME280;65173;48.066;20.976;2023-06-05T14:32:51;100557.59;;;30.90;28.67
76124;BME280;65173;48.066;20.976;2023-06-05T14:35:54;100551.94;;;30.72;27.84
76124;BME280;65173;48.066;20.976;2023-06-05T14:38:57;100543.97;;;30.87;27.39
76124;BME280;65173;48.066;20.976;2023-06-05T14:42:00;100539.47;;;30.80;26.98
76124;BME280;65173;48.066;20.976;2023-06-05T14:45:03;100526.78;;;30.35;27.96
76124;BME280;65173;48.066;20.976;2023-06-05T14:48:06;100527.44;;;30.14;28.55
76124;BME280;65173;48.066;20.976;2023-06-05T14:51:10;100529.19;;;30.33;28.36
76124;BME280;65173;48.066;20.976;2023-06-05T14:54:13;100525.91;;;30.26;29.40
76124;BME280;65173;48.066;20.976;2023-06-05T14:57:16;100532.97;;;30.27;29.60
76124;BME280;65173;48.066;20.976;2023-06-05T15:00:18;100528.84;;;29.68;29.47
76124;BME280;65173;48.066;20.976;2023-06-05T15:03:21;100534.03;;;29.37;30.81
76124;BME280;65173;48.066;20.976;2023-06-05T15:06:24;100527.81;;;29.49;30.23
76124;BME280;65173;48.066;20.976;2023-06-05T15:09:28;100525.03;;;28.91;30.40
76124;BME280;65173;48.066;20.976;2023-06-05T15:12:32;100525.28;;;29.26;32.10
76124;BME280;65173;48.066;20.976;2023-06-05T15:15:34;100525.34;;;29.10;31.70
76124;BME280;65173;48.066;20.976;2023-06-05T15:18:37;100524.38;;;29.45;32.96
76124;BME280;65173;48.066;20.976;2023-06-05T15:21:40;100516.25;;;29.42;33.48
76124;BME280;65173;48.066;20.976;2023-06-05T15:24:42;100519.06;;;29.38;32.02
76124;BME280;65173;48.066;20.976;2023-06-05T15:27:46;100520.38;;;29.05;33.08
76124;BME280;65173;48.066;20.976;2023-06-05T15:30:50;100522.16;;;29.11;31.76
76124;BME280;65173;48.066;20.976;2023-06-05T15:33:53;100518.53;;;29.01;32.93
76124;BME280;65173;48.066;20.976;2023-06-05T15:36:56;100512.88;;;28.92;32.65
76124;BME280;65173;48.066;20.976;2023-06-05T15:39:58;100517.84;;;28.97;31.47
76124;BME280;65173;48.066;20.976;2023-06-05T15:43:06;100513.81;;;28.86;32.85
76124;BME280;65173;48.066;20.976;2023-06-05T15:46:10;100519.72;;;28.68;31.90
76124;BME280;65173;48.066;20.976;2023-06-05T15:49:13;100518.09;;;28.71;33.44
76124;BME280;65173;48.066;20.976;2023-06-05T15:52:15;100519.94;;;28.28;35.42
76124;BME280;65173;48.066;20.976;2023-06-05T15:55:18;100513.66;;;28.12;33.43
76124;BME280;65173;48.066;20.976;2023-06-05T15:58:21;100520.03;;;28.25;36.40
76124;BME280;65173;48.066;20.976;2023-06-05T16:01:23;100518.56;;;28.20;34.41
76124;BME280;65173;48.066;20.976;2023-06-05T16:04:26;100504.97;;;27.97;34.85
76124;BME280;65173;48.066;20.976;2023-06-05T16:07:29;100501.56;;;27.57;36.02
76124;BME280;65173;48.066;20.976;2023-06-05T16:10:32;100504.97;;;27.61;35.39
76124;BME280;65173;48.066;20.976;2023-06-05T16:13:36;100503.63;;;27.49;36.24
76124;BME280;65173;48.066;20.976;2023-06-05T16:16:38;100511.00;;;27.52;36.26
76124;BME280;65173;48.066;20.976;2023-06-05T16:19:41;100507.06;;;27.34;36.96
76124;BME280;65173;48.066;20.976;2023-06-05T16:22:44;100503.97;;;27.12;37.40